sensor_id;sensor_type;location;lat;lon;timestamp;P1;durP1;ratioP1;P2;durP2;ratioP2
83094;SDS011;72967;43.674;6.976;2023-11-21T00:01:25;7.47;;;4.10;;
83094;SDS011;72967;43.674;6.976;2023-11-21T00:03:51;7.55;;;4.25;;
83094;SDS011;72967;43.674;6.976;2023-11-21T00:06:19;5.90;;;4.43;;
83094;SDS011;72967;43.674;6.976;2023-11-21T00:08:45;10.18;;;5.82;;
83094;SDS011;72967;43.674;6.976;2023-11-21T00:11:10;9.75;;;4.72;;
83094;SDS011;72967;43.674;6.976;2023-11-21T00:13:36;4.85;;;3.92;;
83094;SDS011;72967;43.674;6.976;2023-11-21T00:16:02;9.52;;;3.67;;
83094;SDS011;72967;43.674;6.976;2023-11-21T00:18:29;5.22;;;4.43;;
83094;SDS011;72967;43.674;6.976;2023-11-21T00:20:54;7.55;;;3.90;;
83094;SDS011;72967;43.674;6.976;2023-11-21T00:23:20;5.47;;;3.90;;
83094;SDS011;72967;43.674;6.976;2023-11-21T00:25:45;8.18;;;4.15;;
83094;SDS011;72967;43.674;6.976;2023-11-21T00:28:11;5.60;;;4.07;;
83094;SDS011;72967;43.674;6.976;2023-11-21T00:30:36;6.32;;;4.55;;
83094;SDS011;72967;43.674;6.976;2023-11-21T00:33:01;6.70;;;3.90;;
83094;SDS011;72967;43.674;6.976;2023-11-21T00:35:27;7.63;;;4.40;;
83094;SDS011;72967;43.674;6.976;2023-11-21T00:37:52;8.07;;;3.47;;
83094;SDS011;72967;43.674;6.976;2023-11-21T00:40:18;10.73;;;3.78;;
83094;SDS011;72967;43.674;6.976;2023-11-21T00:42:46;6.03;;;3.83;;
83094;SDS011;72967;43.674;6.976;2023-11-21T00:45:12;6.85;;;4.10;;
83094;SDS011;72967;43.674;6.976;2023-11-21T00:47:37;9.23;;;4.32;;
83094;SDS011;72967;43.674;6.976;2023-11-21T00:50:03;7.15;;;3.92;;
83094;SDS011;72967;43.674;6.976;2023-11-21T00:52:31;11.50;;;4.63;;
83094;SDS011;72967;43.674;6.976;2023-11-21T00:54:56;7.03;;;3.83;;
83094;SDS011;72967;43.674;6.976;2023-11-21T00:57:24;6.05;;;4.20;;
83094;SDS011;72967;43.674;6.976;2023-11-21T00:59:49;6.65;;;4.10;;
83094;SDS011;72967;43.674;6.976;2023-11-21T01:02:15;7.00;;;4.15;;
83094;SDS011;72967;43.674;6.976;2023-11-21T01:04:40;8.55;;;4.40;;
83094;SDS011;72967;43.674;6.976;2023-11-21T01:07:06;9.02;;;3.95;;
83094;SDS011;72967;43.674;6.976;2023-11-21T01:09:31;7.07;;;3.92;;
83094;SDS011;72967;43.674;6.976;2023-11-21T01:11:57;7.47;;;4.18;;
83094;SDS011;72967;43.674;6.976;2023-11-21T01:14:22;8.73;;;4.88;;
83094;SDS011;72967;43.674;6.976;2023-11-21T01:16:47;11.63;;;4.95;;
83094;SDS011;72967;43.674;6.976;2023-11-21T01:19:14;5.32;;;4.20;;
83094;SDS011;72967;43.674;6.976;2023-11-21T01:21:39;9.50;;;4.18;;
83094;SDS011;72967;43.674;6.976;2023-11-21T01:24:05;5.82;;;3.80;;
83094;SDS011;72967;43.674;6.976;2023-11-21T01:26:32;8.50;;;4.38;;
83094;SDS011;72967;43.674;6.976;2023-11-21T01:28:58;9.55;;;4.07;;
83094;SDS011;72967;43.674;6.976;2023-11-21T01:31:24;6.75;;;4.13;;
83094;SDS011;72967;43.674;6.976;2023-11-21T01:33:52;7.72;;;4.00;;
83094;SDS011;72967;43.674;6.976;2023-11-21T01:36:17;6.00;;;4.28;;
83094;SDS011;72967;43.674;6.976;2023-11-21T01:38:43;6.43;;;4.80;;
83094;SDS011;72967;43.674;6.976;2023-11-21T01:41:08;8.05;;;5.32;;
83094;SDS011;72967;43.674;6.976;2023-11-21T01:43:36;10.90;;;4.45;;
83094;SDS011;72967;43.674;6.976;2023-11-21T01:46:02;8.77;;;5.38;;
83094;SDS011;72967;43.674;6.976;2023-11-21T01:48:29;6.97;;;4.25;;
83094;SDS011;72967;43.674;6.976;2023-11-21T01:50:54;7.10;;;4.43;;
83094;SDS011;72967;43.674;6.976;2023-11-21T01:53:20;6.93;;;3.97;;
83094;SDS011;72967;43.674;6.976;2023-11-21T01:55:46;9.73;;;4.93;;
83094;SDS011;72967;43.674;6.976;2023-11-21T01:58:11;9.93;;;5.50;;
83094;SDS011;72967;43.674;6.976;2023-11-21T02:00:37;7.28;;;4.03;;
83094;SDS011;72967;43.674;6.976;2023-11-21T02:03:03;6.07;;;4.05;;
83094;SDS011;72967;43.674;6.976;2023-11-21T02:05:29;8.32;;;4.70;;
83094;SDS011;72967;43.674;6.976;2023-11-21T02:07:54;4.65;;;4.22;;
83094;SDS011;72967;43.674;6.976;2023-11-21T02:10:21;7.82;;;4.78;;
83094;SDS011;72967;43.674;6.976;2023-11-21T02:12:50;10.25;;;5.07;;
83094;SDS011;72967;43.674;6.976;2023-11-21T02:15:16;7.93;;;4.97;;
83094;SDS011;72967;43.674;6.976;2023-11-21T02:17:45;7.55;;;5.35;;
83094;SDS011;72967;43.674;6.976;2023-11-21T02:20:18;7.32;;;4.55;;
83094;SDS011;72967;43.674;6.976;2023-11-21T02:22:52;5.65;;;4.20;;
83094;SDS011;72967;43.674;6.976;2023-11-21T02:25:27;13.05;;;4.43;;
83094;SDS011;72967;43.674;6.976;2023-11-21T02:27:55;6.63;;;4.05;;
83094;SDS011;72967;43.674;6.976;2023-11-21T02:30:21;11.05;;;4.38;;
83094;SDS011;72967;43.674;6.976;2023-11-21T02:32:50;7.13;;;4.35;;
83094;SDS011;72967;43.674;6.976;2023-11-21T02:35:19;6.60;;;4.53;;
83094;SDS011;72967;43.674;6.976;2023-11-21T02:37:48;6.22;;;4.45;;
83094;SDS011;72967;43.674;6.976;2023-11-21T02:40:15;5.80;;;3.95;;
83094;SDS011;72967;43.674;6.976;2023-11-21T02:42:49;9.85;;;4.53;;
83094;SDS011;72967;43.674;6.976;2023-11-21T02:45:18;6.13;;;3.70;;
83094;SDS011;72967;43.674;6.976;2023-11-21T02:47:46;3.67;;;3.30;;
83094;SDS011;72967;43.674;6.976;2023-11-21T02:50:12;6.53;;;3.80;;
83094;SDS011;72967;43.674;6.976;2023-11-21T02:52:38;7.78;;;3.45;;
83094;SDS011;72967;43.674;6.976;2023-11-21T02:55:05;6.65;;;3.88;;
83094;SDS011;72967;43.674;6.976;2023-11-21T02:57:32;7.50;;;3.78;;
83094;SDS011;72967;43.674;6.976;2023-11-21T02:59:58;5.78;;;3.78;;
83094;SDS011;72967;43.674;6.976;2023-11-21T03:02:24;3.90;;;3.33;;
83094;SDS011;72967;43.674;6.976;2023-11-21T03:04:50;9.07;;;3.85;;
83094;SDS011;72967;43.674;6.976;2023-11-21T03:07:16;4.38;;;3.38;;
83094;SDS011;72967;43.674;6.976;2023-11-21T03:09:44;5.13;;;3.28;;
83094;SDS011;72967;43.674;6.976;2023-11-21T03:12:12;4.80;;;3.42;;
83094;SDS011;72967;43.674;6.976;2023-11-21T03:14:39;5.30;;;3.40;;
83094;SDS011;72967;43.674;6.976;2023-11-21T03:17:04;4.80;;;3.28;;
83094;SDS011;72967;43.674;6.976;2023-11-21T03:19:30;7.50;;;3.47;;
83094;SDS011;72967;43.674;6.976;2023-11-21T03:21:56;4.47;;;3.00;;
83094;SDS011;72967;43.674;6.976;2023-11-21T03:24:21;3.88;;;2.97;;
83094;SDS011;72967;43.674;6.976;2023-11-21T03:26:47;4.30;;;2.72;;
83094;SDS011;72967;43.674;6.976;2023-11-21T03:29:13;3.95;;;3.17;;
83094;SDS011;72967;43.674;6.976;2023-11-21T03:31:40;6.47;;;3.05;;
83094;SDS011;72967;43.674;6.976;2023-11-21T03:34:05;2.95;;;2.65;;
83094;SDS011;72967;43.674;6.976;2023-11-21T03:36:31;3.50;;;2.40;;
83094;SDS011;72967;43.674;6.976;2023-11-21T03:38:56;4.10;;;2.50;;
83094;SDS011;72967;43.674;6.976;2023-11-21T03:41:22;4.45;;;2.70;;
83094;SDS011;72967;43.674;6.976;2023-11-21T03:43:47;4.45;;;2.75;;
83094;SDS011;72967;43.674;6.976;2023-11-21T03:46:13;4.22;;;2.25;;
83094;SDS011;72967;43.674;6.976;2023-11-21T03:48:38;3.50;;;2.63;;
83094;SDS011;72967;43.674;6.976;2023-11-21T03:51:04;4.85;;;2.42;;
83094;SDS011;72967;43.674;6.976;2023-11-21T03:53:30;5.68;;;2.60;;
83094;SDS011;72967;43.674;6.976;2023-11-21T03:55:55;5.00;;;2.40;;
83094;SDS011;72967;43.674;6.976;2023-11-21T03:58:20;4.00;;;2.45;;
83094;SDS011;72967;43.674;6.976;2023-11-21T04:00:46;5.03;;;2.28;;
83094;SDS011;72967;43.674;6.976;2023-11-21T04:03:14;4.18;;;2.33;;
83094;SDS011;72967;43.674;6.976;2023-11-21T04:05:40;4.07;;;2.63;;
83094;SDS011;72967;43.674;6.976;2023-11-21T04:08:06;7.35;;;2.53;;
83094;SDS011;72967;43.674;6.976;2023-11-21T04:10:31;4.05;;;2.40;;
83094;SDS011;72967;43.674;6.976;2023-11-21T04:12:57;3.58;;;2.40;;
83094;SDS011;72967;43.674;6.976;2023-11-21T04:15:23;3.10;;;2.78;;
83094;SDS011;72967;43.674;6.976;2023-11-21T04:17:48;5.72;;;2.83;;
83094;SDS011;72967;43.674;6.976;2023-11-21T04:20:14;4.97;;;2.28;;
83094;SDS011;72967;43.674;6.976;2023-11-21T04:22:39;5.60;;;3.10;;
83094;SDS011;72967;43.674;6.976;2023-11-21T04:25:07;3.53;;;2.70;;
83094;SDS011;72967;43.674;6.976;2023-11-21T04:27:34;4.82;;;2.97;;
83094;SDS011;72967;43.674;6.976;2023-11-21T04:29:59;7.38;;;3.17;;
83094;SDS011;72967;43.674;6.976;2023-11-21T04:32:25;3.63;;;2.50;;
83094;SDS011;72967;43.674;6.976;2023-11-21T04:34:50;3.08;;;2.33;;
83094;SDS011;72967;43.674;6.976;2023-11-21T04:37:15;5.40;;;2.60;;
83094;SDS011;72967;43.674;6.976;2023-11-21T04:39:41;4.05;;;2.30;;
83094;SDS011;72967;43.674;6.976;2023-11-21T04:42:06;3.78;;;2.25;;
83094;SDS011;72967;43.674;6.976;2023-11-21T04:44:32;3.97;;;2.70;;
83094;SDS011;72967;43.674;6.976;2023-11-21T04:46:57;3.25;;;2.75;;
83094;SDS011;72967;43.674;6.976;2023-11-21T04:49:22;4.65;;;2.45;;
83094;SDS011;72967;43.674;6.976;2023-11-21T04:51:48;4.88;;;2.33;;
83094;SDS011;72967;43.674;6.976;2023-11-21T04:54:13;4.10;;;2.95;;
83094;SDS011;72967;43.674;6.976;2023-11-21T04:56:39;4.20;;;2.97;;
83094;SDS011;72967;43.674;6.976;2023-11-21T04:59:04;3.10;;;2.35;;
83094;SDS011;72967;43.674;6.976;2023-11-21T05:01:29;2.90;;;2.15;;
83094;SDS011;72967;43.674;6.976;2023-11-21T05:03:55;5.68;;;2.55;;
83094;SDS011;72967;43.674;6.976;2023-11-21T05:06:22;4.53;;;2.90;;
83094;SDS011;72967;43.674;6.976;2023-11-21T05:08:48;3.67;;;2.53;;
83094;SDS011;72967;43.674;6.976;2023-11-21T05:11:27;5.78;;;2.88;;
83094;SDS011;72967;43.674;6.976;2023-11-21T05:13:54;3.67;;;2.17;;
83094;SDS011;72967;43.674;6.976;2023-11-21T05:16:21;3.10;;;2.20;;
83094;SDS011;72967;43.674;6.976;2023-11-21T05:18:47;4.43;;;2.20;;
83094;SDS011;72967;43.674;6.976;2023-11-21T05:21:13;3.30;;;2.05;;
83094;SDS011;72967;43.674;6.976;2023-11-21T05:23:38;4.22;;;1.92;;
83094;SDS011;72967;43.674;6.976;2023-11-21T05:26:04;3.97;;;1.83;;
83094;SDS011;72967;43.674;6.976;2023-11-21T05:28:30;2.67;;;2.30;;
83094;SDS011;72967;43.674;6.976;2023-11-21T05:30:55;2.40;;;2.20;;
83094;SDS011;72967;43.674;6.976;2023-11-21T05:33:21;4.97;;;2.40;;
83094;SDS011;72967;43.674;6.976;2023-11-21T05:35:46;3.50;;;2.70;;
83094;SDS011;72967;43.674;6.976;2023-11-21T05:38:13;2.90;;;1.80;;
83094;SDS011;72967;43.674;6.976;2023-11-21T05:40:39;2.50;;;2.10;;
83094;SDS011;72967;43.674;6.976;2023-11-21T05:43:04;3.85;;;1.75;;
83094;SDS011;72967;43.674;6.976;2023-11-21T05:45:30;2.25;;;1.92;;
83094;SDS011;72967;43.674;6.976;2023-11-21T05:47:56;2.25;;;1.75;;
83094;SDS011;72967;43.674;6.976;2023-11-21T05:50:22;3.20;;;1.80;;
83094;SDS011;72967;43.674;6.976;2023-11-21T05:52:48;2.35;;;1.60;;
83094;SDS011;72967;43.674;6.976;2023-11-21T05:55:14;2.25;;;1.90;;
83094;SDS011;72967;43.674;6.976;2023-11-21T05:57:41;4.25;;;1.92;;
83094;SDS011;72967;43.674;6.976;2023-11-21T06:00:14;2.50;;;1.83;;
83094;SDS011;72967;43.674;6.976;2023-11-21T06:02:50;1.70;;;1.35;;
83094;SDS011;72967;43.674;6.976;2023-11-21T06:05:18;3.33;;;2.00;;
83094;SDS011;72967;43.674;6.976;2023-11-21T06:07:44;3.00;;;2.30;;
83094;SDS011;72967;43.674;6.976;2023-11-21T06:10:10;3.47;;;1.70;;
83094;SDS011;72967;43.674;6.976;2023-11-21T06:12:40;2.35;;;1.90;;
83094;SDS011;72967;43.674;6.976;2023-11-21T06:15:08;2.38;;;2.17;;
83094;SDS011;72967;43.674;6.976;2023-11-21T06:17:35;4.45;;;2.15;;
83094;SDS011;72967;43.674;6.976;2023-11-21T06:20:04;2.45;;;1.90;;
83094;SDS011;72967;43.674;6.976;2023-11-21T06:22:43;2.45;;;2.25;;
83094;SDS011;72967;43.674;6.976;2023-11-21T06:25:12;2.35;;;1.70;;
83094;SDS011;72967;43.674;6.976;2023-11-21T06:27:45;2.60;;;2.40;;
83094;SDS011;72967;43.674;6.976;2023-11-21T06:30:13;3.80;;;2.22;;
83094;SDS011;72967;43.674;6.976;2023-11-21T06:32:40;2.92;;;2.15;;
83094;SDS011;72967;43.674;6.976;2023-11-21T06:35:06;3.67;;;1.73;;
83094;SDS011;72967;43.674;6.976;2023-11-21T06:37:33;1.88;;;1.40;;
83094;SDS011;72967;43.674;6.976;2023-11-21T06:39:59;1.92;;;1.30;;
83094;SDS011;72967;43.674;6.976;2023-11-21T06:42:25;2.58;;;1.83;;
83094;SDS011;72967;43.674;6.976;2023-11-21T06:44:51;2.80;;;1.40;;
83094;SDS011;72967;43.674;6.976;2023-11-21T06:47:18;2.85;;;1.90;;
83094;SDS011;72967;43.674;6.976;2023-11-21T06:49:49;3.25;;;1.95;;
83094;SDS011;72967;43.674;6.976;2023-11-21T06:52:15;3.13;;;1.85;;
83094;SDS011;72967;43.674;6.976;2023-11-21T06:54:41;2.50;;;1.75;;
83094;SDS011;72967;43.674;6.976;2023-11-21T06:57:06;2.13;;;1.67;;
83094;SDS011;72967;43.674;6.976;2023-11-21T06:59:32;3.90;;;1.73;;
83094;SDS011;72967;43.674;6.976;2023-11-21T07:01:58;5.75;;;1.90;;
83094;SDS011;72967;43.674;6.976;2023-11-21T07:04:23;4.00;;;1.73;;
83094;SDS011;72967;43.674;6.976;2023-11-21T07:06:50;2.17;;;1.33;;
83094;SDS011;72967;43.674;6.976;2023-11-21T07:09:16;2.63;;;2.42;;
83094;SDS011;72967;43.674;6.976;2023-11-21T07:11:42;6.03;;;1.92;;
83094;SDS011;72967;43.674;6.976;2023-11-21T07:14:07;2.63;;;2.20;;
83094;SDS011;72967;43.674;6.976;2023-11-21T07:16:37;4.85;;;1.65;;
83094;SDS011;72967;43.674;6.976;2023-11-21T07:19:06;7.40;;;1.90;;
83094;SDS011;72967;43.674;6.976;2023-11-21T07:21:32;2.72;;;2.00;;
83094;SDS011;72967;43.674;6.976;2023-11-21T07:24:02;2.58;;;2.13;;
83094;SDS011;72967;43.674;6.976;2023-11-21T07:26:28;4.28;;;2.60;;
83094;SDS011;72967;43.674;6.976;2023-11-21T07:28:54;3.70;;;2.55;;
83094;SDS011;72967;43.674;6.976;2023-11-21T07:31:19;2.22;;;1.73;;
83094;SDS011;72967;43.674;6.976;2023-11-21T07:33:45;2.63;;;2.22;;
83094;SDS011;72967;43.674;6.976;2023-11-21T07:36:14;2.97;;;2.10;;
83094;SDS011;72967;43.674;6.976;2023-11-21T07:38:41;5.30;;;2.95;;
83094;SDS011;72967;43.674;6.976;2023-11-21T07:41:08;5.10;;;2.80;;
83094;SDS011;72967;43.674;6.976;2023-11-21T07:43:34;8.88;;;2.80;;
83094;SDS011;72967;43.674;6.976;2023-11-21T07:46:04;2.67;;;2.25;;
83094;SDS011;72967;43.674;6.976;2023-11-21T07:48:30;4.03;;;2.33;;
83094;SDS011;72967;43.674;6.976;2023-11-21T07:50:56;3.00;;;1.80;;
83094;SDS011;72967;43.674;6.976;2023-11-21T07:53:23;5.63;;;2.20;;
83094;SDS011;72967;43.674;6.976;2023-11-21T07:55:54;3.10;;;2.25;;
83094;SDS011;72967;43.674;6.976;2023-11-21T07:58:19;3.15;;;2.30;;
83094;SDS011;72967;43.674;6.976;2023-11-21T08:00:45;7.05;;;2.15;;
83094;SDS011;72967;43.674;6.976;2023-11-21T08:03:10;2.97;;;1.80;;
83094;SDS011;72967;43.674;6.976;2023-11-21T08:05:36;3.65;;;2.63;;
83094;SDS011;72967;43.674;6.976;2023-11-21T08:08:02;3.17;;;2.33;;
83094;SDS011;72967;43.674;6.976;2023-11-21T08:10:27;3.50;;;2.25;;
83094;SDS011;72967;43.674;6.976;2023-11-21T08:12:53;4.50;;;2.53;;
83094;SDS011;72967;43.674;6.976;2023-11-21T08:15:18;4.05;;;2.08;;
83094;SDS011;72967;43.674;6.976;2023-11-21T08:17:45;5.25;;;3.15;;
83094;SDS011;72967;43.674;6.976;2023-11-21T08:20:11;4.78;;;2.53;;
83094;SDS011;72967;43.674;6.976;2023-11-21T08:22:37;5.03;;;2.28;;
83094;SDS011;72967;43.674;6.976;2023-11-21T08:25:02;7.75;;;2.67;;
83094;SDS011;72967;43.674;6.976;2023-11-21T08:27:31;4.82;;;2.72;;
83094;SDS011;72967;43.674;6.976;2023-11-21T08:29:56;2.67;;;2.10;;
83094;SDS011;72967;43.674;6.976;2023-11-21T08:32:22;6.05;;;2.40;;
83094;SDS011;72967;43.674;6.976;2023-11-21T08:34:47;4.65;;;2.47;;
83094;SDS011;72967;43.674;6.976;2023-11-21T08:37:16;5.90;;;2.63;;
83094;SDS011;72967;43.674;6.976;2023-11-21T08:39:41;6.53;;;4.68;;
83094;SDS011;72967;43.674;6.976;2023-11-21T08:42:08;9.15;;;4.10;;
83094;SDS011;72967;43.674;6.976;2023-11-21T08:44:33;4.97;;;2.60;;
83094;SDS011;72967;43.674;6.976;2023-11-21T08:46:59;7.35;;;3.33;;
83094;SDS011;72967;43.674;6.976;2023-11-21T08:49:24;5.13;;;2.95;;
83094;SDS011;72967;43.674;6.976;2023-11-21T08:51:52;7.55;;;3.33;;
83094;SDS011;72967;43.674;6.976;2023-11-21T08:54:20;6.00;;;2.55;;
83094;SDS011;72967;43.674;6.976;2023-11-21T08:56:46;5.32;;;3.60;;
83094;SDS011;72967;43.674;6.976;2023-11-21T08:59:11;6.63;;;2.80;;
83094;SDS011;72967;43.674;6.976;2023-11-21T09:01:39;5.18;;;2.95;;
83094;SDS011;72967;43.674;6.976;2023-11-21T09:04:05;7.00;;;3.10;;
83094;SDS011;72967;43.674;6.976;2023-11-21T09:06:31;4.07;;;2.60;;
83094;SDS011;72967;43.674;6.976;2023-11-21T09:08:57;7.75;;;2.72;;
83094;SDS011;72967;43.674;6.976;2023-11-21T09:11:23;5.57;;;2.45;;
83094;SDS011;72967;43.674;6.976;2023-11-21T09:13:50;8.52;;;3.35;;
83094;SDS011;72967;43.674;6.976;2023-11-21T09:16:16;5.35;;;2.90;;
83094;SDS011;72967;43.674;6.976;2023-11-21T09:18:42;8.23;;;3.15;;
83094;SDS011;72967;43.674;6.976;2023-11-21T09:21:07;6.22;;;2.72;;
83094;SDS011;72967;43.674;6.976;2023-11-21T09:23:33;5.15;;;2.95;;
83094;SDS011;72967;43.674;6.976;2023-11-21T09:25:59;7.57;;;3.25;;
83094;SDS011;72967;43.674;6.976;2023-11-21T09:28:26;6.80;;;2.92;;
83094;SDS011;72967;43.674;6.976;2023-11-21T09:30:52;5.40;;;2.92;;
83094;SDS011;72967;43.674;6.976;2023-11-21T09:33:18;9.25;;;3.05;;
83094;SDS011;72967;43.674;6.976;2023-11-21T09:35:43;11.32;;;3.03;;
83094;SDS011;72967;43.674;6.976;2023-11-21T09:38:09;10.13;;;4.45;;
83094;SDS011;72967;43.674;6.976;2023-11-21T09:40:36;12.55;;;2.72;;
83094;SDS011;72967;43.674;6.976;2023-11-21T09:43:06;13.20;;;3.75;;
83094;SDS011;72967;43.674;6.976;2023-11-21T09:45:40;12.63;;;3.67;;
83094;SDS011;72967;43.674;6.976;2023-11-21T09:48:15;6.88;;;3.45;;
83094;SDS011;72967;43.674;6.976;2023-11-21T09:50:42;5.22;;;3.60;;
83094;SDS011;72967;43.674;6.976;2023-11-21T09:55:44;4.50;;;3.15;;
83094;SDS011;72967;43.674;6.976;2023-11-21T09:58:11;7.65;;;3.33;;
83094;SDS011;72967;43.674;6.976;2023-11-21T10:00:41;3.88;;;3.17;;
83094;SDS011;72967;43.674;6.976;2023-11-21T10:03:08;7.85;;;3.30;;
83094;SDS011;72967;43.674;6.976;2023-11-21T10:05:35;4.88;;;3.28;;
83094;SDS011;72967;43.674;6.976;2023-11-21T10:08:01;6.25;;;3.25;;
83094;SDS011;72967;43.674;6.976;2023-11-21T10:10:29;5.60;;;3.47;;
83094;SDS011;72967;43.674;6.976;2023-11-21T10:12:57;7.20;;;3.55;;
83094;SDS011;72967;43.674;6.976;2023-11-21T10:15:28;6.75;;;4.13;;
83094;SDS011;72967;43.674;6.976;2023-11-21T10:17:54;14.05;;;3.92;;
83094;SDS011;72967;43.674;6.976;2023-11-21T10:20:20;8.43;;;3.92;;
83094;SDS011;72967;43.674;6.976;2023-11-21T10:22:47;6.28;;;3.60;;
83094;SDS011;72967;43.674;6.976;2023-11-21T10:25:12;4.68;;;3.58;;
83094;SDS011;72967;43.674;6.976;2023-11-21T10:27:43;4.60;;;3.20;;
83094;SDS011;72967;43.674;6.976;2023-11-21T10:30:11;7.20;;;3.38;;
83094;SDS011;72967;43.674;6.976;2023-11-21T10:32:40;6.75;;;2.85;;
83094;SDS011;72967;43.674;6.976;2023-11-21T10:35:09;5.38;;;3.22;;
83094;SDS011;72967;43.674;6.976;2023-11-21T10:37:39;6.35;;;3.03;;
83094;SDS011;72967;43.674;6.976;2023-11-21T10:40:08;5.50;;;3.45;;
83094;SDS011;72967;43.674;6.976;2023-11-21T10:42:37;5.75;;;3.03;;
83094;SDS011;72967;43.674;6.976;2023-11-21T10:45:07;5.70;;;3.80;;
83094;SDS011;72967;43.674;6.976;2023-11-21T10:47:39;5.35;;;3.63;;
83094;SDS011;72967;43.674;6.976;2023-11-21T10:50:06;8.00;;;5.25;;
83094;SDS011;72967;43.674;6.976;2023-11-21T10:52:36;5.53;;;4.20;;
83094;SDS011;72967;43.674;6.976;2023-11-21T10:55:18;7.25;;;4.95;;
83094;SDS011;72967;43.674;6.976;2023-11-21T10:57:49;5.88;;;4.43;;
83094;SDS011;72967;43.674;6.976;2023-11-21T11:00:17;8.32;;;4.07;;
83094;SDS011;72967;43.674;6.976;2023-11-21T11:02:48;8.70;;;3.80;;
83094;SDS011;72967;43.674;6.976;2023-11-21T11:05:19;7.05;;;3.53;;
83094;SDS011;72967;43.674;6.976;2023-11-21T11:07:45;7.15;;;4.18;;
83094;SDS011;72967;43.674;6.976;2023-11-21T11:10:13;7.50;;;3.90;;
83094;SDS011;72967;43.674;6.976;2023-11-21T11:12:41;4.78;;;2.80;;
83094;SDS011;72967;43.674;6.976;2023-11-21T11:15:07;5.55;;;3.10;;
83094;SDS011;72967;43.674;6.976;2023-11-21T11:17:36;6.88;;;3.63;;
83094;SDS011;72967;43.674;6.976;2023-11-21T11:20:04;4.68;;;3.63;;
83094;SDS011;72967;43.674;6.976;2023-11-21T11:38:16;6.30;;;3.85;;
83094;SDS011;72967;43.674;6.976;2023-11-21T11:40:45;4.57;;;3.08;;
83094;SDS011;72967;43.674;6.976;2023-11-21T11:43:11;6.20;;;4.00;;
83094;SDS011;72967;43.674;6.976;2023-11-21T11:45:36;5.88;;;3.50;;
83094;SDS011;72967;43.674;6.976;2023-11-21T11:48:06;5.38;;;4.15;;
83094;SDS011;72967;43.674;6.976;2023-11-21T11:50:32;6.03;;;3.60;;
83094;SDS011;72967;43.674;6.976;2023-11-21T11:53:19;7.05;;;4.88;;
83094;SDS011;72967;43.674;6.976;2023-11-21T11:55:44;6.68;;;3.95;;
83094;SDS011;72967;43.674;6.976;2023-11-21T11:58:10;7.07;;;3.97;;
83094;SDS011;72967;43.674;6.976;2023-11-21T12:00:36;7.13;;;4.00;;
83094;SDS011;72967;43.674;6.976;2023-11-21T12:03:08;6.63;;;3.78;;
83094;SDS011;72967;43.674;6.976;2023-11-21T12:05:34;6.18;;;4.53;;
83094;SDS011;72967;43.674;6.976;2023-11-21T12:08:03;7.63;;;4.57;;
83094;SDS011;72967;43.674;6.976;2023-11-21T12:10:31;7.22;;;4.00;;
83094;SDS011;72967;43.674;6.976;2023-11-21T12:12:58;9.70;;;3.95;;
83094;SDS011;72967;43.674;6.976;2023-11-21T12:15:28;5.90;;;4.03;;
83094;SDS011;72967;43.674;6.976;2023-11-21T12:17:55;5.63;;;3.20;;
83094;SDS011;72967;43.674;6.976;2023-11-21T12:20:22;6.32;;;4.03;;
83094;SDS011;72967;43.674;6.976;2023-11-21T12:22:52;4.85;;;3.47;;
83094;SDS011;72967;43.674;6.976;2023-11-21T12:25:23;7.18;;;3.53;;
83094;SDS011;72967;43.674;6.976;2023-11-21T12:27:52;5.53;;;2.95;;
83094;SDS011;72967;43.674;6.976;2023-11-21T12:30:18;7.90;;;3.40;;
83094;SDS011;72967;43.674;6.976;2023-11-21T12:32:50;5.97;;;2.78;;
83094;SDS011;72967;43.674;6.976;2023-11-21T12:35:18;6.13;;;2.97;;
83094;SDS011;72967;43.674;6.976;2023-11-21T12:37:51;3.72;;;2.67;;
83094;SDS011;72967;43.674;6.976;2023-11-21T12:40:17;4.75;;;2.90;;
83094;SDS011;72967;43.674;6.976;2023-11-21T12:42:46;5.18;;;3.20;;
83094;SDS011;72967;43.674;6.976;2023-11-21T12:47:54;3.38;;;2.20;;
83094;SDS011;72967;43.674;6.976;2023-11-21T12:50:25;4.03;;;2.45;;
83094;SDS011;72967;43.674;6.976;2023-11-21T12:52:58;5.78;;;2.50;;
83094;SDS011;72967;43.674;6.976;2023-11-21T12:55:26;4.97;;;2.90;;
83094;SDS011;72967;43.674;6.976;2023-11-21T12:57:55;4.05;;;2.30;;
83094;SDS011;72967;43.674;6.976;2023-11-21T13:00:27;4.20;;;2.03;;
83094;SDS011;72967;43.674;6.976;2023-11-21T13:02:55;2.47;;;2.10;;
83094;SDS011;72967;43.674;6.976;2023-11-21T13:05:28;4.78;;;2.28;;
83094;SDS011;72967;43.674;6.976;2023-11-21T13:07:58;5.05;;;2.30;;
83094;SDS011;72967;43.674;6.976;2023-11-21T13:10:28;5.45;;;2.28;;
83094;SDS011;72967;43.674;6.976;2023-11-21T13:13:03;2.05;;;1.70;;
83094;SDS011;72967;43.674;6.976;2023-11-21T13:15:30;5.88;;;2.22;;
83094;SDS011;72967;43.674;6.976;2023-11-21T13:17:58;4.10;;;2.75;;
83094;SDS011;72967;43.674;6.976;2023-11-21T13:20:24;6.85;;;2.00;;
83094;SDS011;72967;43.674;6.976;2023-11-21T13:25:22;4.13;;;2.25;;
83094;SDS011;72967;43.674;6.976;2023-11-21T13:27:48;3.60;;;1.90;;
83094;SDS011;72967;43.674;6.976;2023-11-21T13:30:14;3.42;;;2.25;;
83094;SDS011;72967;43.674;6.976;2023-11-21T13:32:48;4.43;;;2.20;;
83094;SDS011;72967;43.674;6.976;2023-11-21T13:35:16;5.13;;;2.28;;
83094;SDS011;72967;43.674;6.976;2023-11-21T13:37:56;2.55;;;2.03;;
83094;SDS011;72967;43.674;6.976;2023-11-21T13:40:25;4.18;;;2.50;;
83094;SDS011;72967;43.674;6.976;2023-11-21T13:42:52;4.20;;;2.88;;
83094;SDS011;72967;43.674;6.976;2023-11-21T13:45:19;4.15;;;2.58;;
83094;SDS011;72967;43.674;6.976;2023-11-21T13:47:51;4.57;;;3.17;;
83094;SDS011;72967;43.674;6.976;2023-11-21T13:50:20;4.57;;;2.95;;
83094;SDS011;72967;43.674;6.976;2023-11-21T13:52:51;4.68;;;2.92;;
83094;SDS011;72967;43.674;6.976;2023-11-21T13:55:19;3.30;;;2.63;;
83094;SDS011;72967;43.674;6.976;2023-11-21T13:57:44;5.13;;;2.65;;
83094;SDS011;72967;43.674;6.976;2023-11-21T14:00:14;3.15;;;2.40;;
83094;SDS011;72967;43.674;6.976;2023-11-21T14:03:00;5.10;;;2.30;;
83094;SDS011;72967;43.674;6.976;2023-11-21T14:05:29;5.65;;;2.42;;
83094;SDS011;72967;43.674;6.976;2023-11-21T14:07:56;3.15;;;2.40;;
83094;SDS011;72967;43.674;6.976;2023-11-21T14:10:28;3.20;;;2.08;;
83094;SDS011;72967;43.674;6.976;2023-11-21T14:13:02;3.17;;;2.08;;
83094;SDS011;72967;43.674;6.976;2023-11-21T14:15:28;3.88;;;2.22;;
83094;SDS011;72967;43.674;6.976;2023-11-21T14:17:54;2.65;;;2.05;;
83094;SDS011;72967;43.674;6.976;2023-11-21T14:20:19;4.75;;;2.00;;
83094;SDS011;72967;43.674;6.976;2023-11-21T14:22:46;3.25;;;2.50;;
83094;SDS011;72967;43.674;6.976;2023-11-21T14:25:11;4.18;;;2.35;;
83094;SDS011;72967;43.674;6.976;2023-11-21T14:27:39;4.10;;;2.15;;
83094;SDS011;72967;43.674;6.976;2023-11-21T14:30:05;4.00;;;2.55;;
83094;SDS011;72967;43.674;6.976;2023-11-21T14:32:31;3.45;;;2.03;;
83094;SDS011;72967;43.674;6.976;2023-11-21T14:34:57;5.10;;;2.55;;
83094;SDS011;72967;43.674;6.976;2023-11-21T14:37:22;2.40;;;1.88;;
83094;SDS011;72967;43.674;6.976;2023-11-21T14:39:48;3.70;;;1.80;;
83094;SDS011;72967;43.674;6.976;2023-11-21T14:42:14;2.03;;;1.65;;
83094;SDS011;72967;43.674;6.976;2023-11-21T14:44:40;2.85;;;1.67;;
83094;SDS011;72967;43.674;6.976;2023-11-21T14:47:07;3.03;;;2.00;;
83094;SDS011;72967;43.674;6.976;2023-11-21T14:49:42;3.35;;;1.88;;
83094;SDS011;72967;43.674;6.976;2023-11-21T14:52:18;4.43;;;2.63;;
83094;SDS011;72967;43.674;6.976;2023-11-21T14:54:53;2.85;;;1.95;;
83094;SDS011;72967;43.674;6.976;2023-11-21T14:57:38;2.90;;;1.75;;
83094;SDS011;72967;43.674;6.976;2023-11-21T15:00:04;3.53;;;2.13;;
83094;SDS011;72967;43.674;6.976;2023-11-21T15:02:34;3.83;;;1.90;;
83094;SDS011;72967;43.674;6.976;2023-11-21T15:05:15;2.00;;;1.63;;
83094;SDS011;72967;43.674;6.976;2023-11-21T15:07:41;2.58;;;1.58;;
83094;SDS011;72967;43.674;6.976;2023-11-21T15:10:07;4.20;;;2.35;;
83094;SDS011;72967;43.674;6.976;2023-11-21T15:12:39;2.72;;;1.50;;